sensor_id;sensor_type;location;lat;lon;timestamp;P1;durP1;ratioP1;P2;durP2;ratioP2
71677;SDS011;59511;52.136;6.206;2023-09-12T00:02:00;50.10;;;28.23;;
71677;SDS011;59511;52.136;6.206;2023-09-12T00:04:26;45.97;;;26.70;;
71677;SDS011;59511;52.136;6.206;2023-09-12T00:06:51;45.20;;;27.37;;
71677;SDS011;59511;52.136;6.206;2023-09-12T00:09:16;43.50;;;26.87;;
71677;SDS011;59511;52.136;6.206;2023-09-12T00:11:42;44.27;;;25.83;;
71677;SDS011;59511;52.136;6.206;2023-09-12T00:14:08;46.70;;;27.23;;
71677;SDS011;59511;52.136;6.206;2023-09-12T00:16:34;47.90;;;26.65;;
71677;SDS011;59511;52.136;6.206;2023-09-12T00:18:59;43.67;;;26.17;;
71677;SDS011;59511;52.136;6.206;2023-09-12T00:21:25;47.60;;;26.53;;
71677;SDS011;59511;52.136;6.206;2023-09-12T00:23:50;43.63;;;26.13;;
71677;SDS011;59511;52.136;6.206;2023-09-12T00:26:15;44.57;;;26.07;;
71677;SDS011;59511;52.136;6.206;2023-09-12T00:28:41;44.03;;;26.50;;
71677;SDS011;59511;52.136;6.206;2023-09-12T00:31:06;45.20;;;26.53;;
71677;SDS011;59511;52.136;6.206;2023-09-12T00:33:31;43.87;;;25.60;;
71677;SDS011;59511;52.136;6.206;2023-09-12T00:35:57;45.03;;;26.70;;
71677;SDS011;59511;52.136;6.206;2023-09-12T00:38:22;46.33;;;27.27;;
71677;SDS011;59511;52.136;6.206;2023-09-12T00:40:48;48.13;;;26.83;;
71677;SDS011;59511;52.136;6.206;2023-09-12T00:43:13;44.20;;;25.27;;
71677;SDS011;59511;52.136;6.206;2023-09-12T00:45:39;46.70;;;27.73;;
71677;SDS011;59511;52.136;6.206;2023-09-12T00:48:04;46.80;;;26.42;;
71677;SDS011;59511;52.136;6.206;2023-09-12T00:50:31;45.08;;;26.33;;
71677;SDS011;59511;52.136;6.206;2023-09-12T00:52:58;47.50;;;26.60;;
71677;SDS011;59511;52.136;6.206;2023-09-12T00:55:25;49.50;;;27.10;;
71677;SDS011;59511;52.136;6.206;2023-09-12T00:57:51;45.83;;;26.27;;
71677;SDS011;59511;52.136;6.206;2023-09-12T01:00:17;46.95;;;26.73;;
71677;SDS011;59511;52.136;6.206;2023-09-12T01:02:44;47.80;;;26.33;;
71677;SDS011;59511;52.136;6.206;2023-09-12T01:05:12;46.63;;;26.92;;
71677;SDS011;59511;52.136;6.206;2023-09-12T01:07:39;45.78;;;26.35;;
71677;SDS011;59511;52.136;6.206;2023-09-12T01:10:05;48.17;;;26.57;;
71677;SDS011;59511;52.136;6.206;2023-09-12T01:12:32;48.92;;;26.65;;
71677;SDS011;59511;52.136;6.206;2023-09-12T01:14:57;47.97;;;27.20;;
71677;SDS011;59511;52.136;6.206;2023-09-12T01:17:23;50.60;;;27.43;;
71677;SDS011;59511;52.136;6.206;2023-09-12T01:19:48;51.60;;;27.13;;
71677;SDS011;59511;52.136;6.206;2023-09-12T01:25:08;49.72;;;26.60;;
71677;SDS011;59511;52.136;6.206;2023-09-12T01:27:46;49.13;;;26.90;;
71677;SDS011;59511;52.136;6.206;2023-09-12T01:30:14;52.00;;;27.83;;
71677;SDS011;59511;52.136;6.206;2023-09-12T01:32:42;47.40;;;26.60;;
71677;SDS011;59511;52.136;6.206;2023-09-12T01:35:08;48.25;;;26.60;;
71677;SDS011;59511;52.136;6.206;2023-09-12T01:37:34;49.30;;;26.93;;
71677;SDS011;59511;52.136;6.206;2023-09-12T01:39:59;53.60;;;27.70;;
71677;SDS011;59511;52.136;6.206;2023-09-12T01:42:27;49.40;;;27.83;;
71677;SDS011;59511;52.136;6.206;2023-09-12T01:44:56;47.60;;;26.60;;
71677;SDS011;59511;52.136;6.206;2023-09-12T01:47:23;50.92;;;27.98;;
71677;SDS011;59511;52.136;6.206;2023-09-12T01:49:51;50.27;;;26.80;;
71677;SDS011;59511;52.136;6.206;2023-09-12T01:52:19;51.58;;;27.00;;
71677;SDS011;59511;52.136;6.206;2023-09-12T01:54:45;51.83;;;27.10;;
71677;SDS011;59511;52.136;6.206;2023-09-12T01:57:12;48.63;;;26.60;;
71677;SDS011;59511;52.136;6.206;2023-09-12T01:59:39;50.08;;;26.35;;
71677;SDS011;59511;52.136;6.206;2023-09-12T02:02:05;46.83;;;26.53;;
71677;SDS011;59511;52.136;6.206;2023-09-12T02:04:30;51.70;;;27.20;;
71677;SDS011;59511;52.136;6.206;2023-09-12T02:06:55;50.55;;;27.38;;
71677;SDS011;59511;52.136;6.206;2023-09-12T02:09:21;53.50;;;27.43;;
71677;SDS011;59511;52.136;6.206;2023-09-12T02:11:47;50.47;;;26.57;;
71677;SDS011;59511;52.136;6.206;2023-09-12T02:14:13;51.78;;;27.75;;
71677;SDS011;59511;52.136;6.206;2023-09-12T02:16:39;51.03;;;27.17;;
71677;SDS011;59511;52.136;6.206;2023-09-12T02:19:05;50.47;;;26.63;;
71677;SDS011;59511;52.136;6.206;2023-09-12T02:21:31;50.67;;;27.20;;
71677;SDS011;59511;52.136;6.206;2023-09-12T02:23:56;52.17;;;28.40;;
71677;SDS011;59511;52.136;6.206;2023-09-12T02:26:21;53.63;;;27.87;;
71677;SDS011;59511;52.136;6.206;2023-09-12T02:28:47;48.40;;;26.63;;
71677;SDS011;59511;52.136;6.206;2023-09-12T02:31:12;53.07;;;27.73;;
71677;SDS011;59511;52.136;6.206;2023-09-12T02:33:38;48.60;;;27.10;;
71677;SDS011;59511;52.136;6.206;2023-09-12T02:36:04;50.35;;;27.48;;
71677;SDS011;59511;52.136;6.206;2023-09-12T02:38:30;52.72;;;27.40;;
71677;SDS011;59511;52.136;6.206;2023-09-12T02:40:56;51.80;;;28.10;;
71677;SDS011;59511;52.136;6.206;2023-09-12T02:43:21;53.40;;;27.58;;
71677;SDS011;59511;52.136;6.206;2023-09-12T02:45:47;51.90;;;26.73;;
71677;SDS011;59511;52.136;6.206;2023-09-12T02:48:12;53.03;;;27.40;;
71677;SDS011;59511;52.136;6.206;2023-09-12T02:50:38;50.87;;;27.10;;
71677;SDS011;59511;52.136;6.206;2023-09-12T02:53:03;52.27;;;27.63;;
71677;SDS011;59511;52.136;6.206;2023-09-12T02:55:28;50.70;;;26.67;;
71677;SDS011;59511;52.136;6.206;2023-09-12T02:57:54;54.53;;;27.43;;
71677;SDS011;59511;52.136;6.206;2023-09-12T03:00:19;54.07;;;28.47;;
71677;SDS011;59511;52.136;6.206;2023-09-12T03:02:45;51.63;;;27.50;;
71677;SDS011;59511;52.136;6.206;2023-09-12T03:05:10;52.42;;;27.83;;
71677;SDS011;59511;52.136;6.206;2023-09-12T03:07:35;52.83;;;27.80;;
71677;SDS011;59511;52.136;6.206;2023-09-12T03:10:01;50.40;;;27.80;;
71677;SDS011;59511;52.136;6.206;2023-09-12T03:12:26;54.37;;;27.50;;
71677;SDS011;59511;52.136;6.206;2023-09-12T03:14:52;52.45;;;28.02;;
71677;SDS011;59511;52.136;6.206;2023-09-12T03:17:17;50.97;;;27.07;;
71677;SDS011;59511;52.136;6.206;2023-09-12T03:19:43;53.70;;;28.47;;
71677;SDS011;59511;52.136;6.206;2023-09-12T03:22:08;51.90;;;28.67;;
71677;SDS011;59511;52.136;6.206;2023-09-12T03:24:34;54.20;;;28.38;;
71677;SDS011;59511;52.136;6.206;2023-09-12T03:26:59;56.53;;;28.13;;
71677;SDS011;59511;52.136;6.206;2023-09-12T03:29:25;54.53;;;28.67;;
71677;SDS011;59511;52.136;6.206;2023-09-12T03:31:50;51.77;;;26.97;;
71677;SDS011;59511;52.136;6.206;2023-09-12T03:34:16;52.63;;;27.50;;
71677;SDS011;59511;52.136;6.206;2023-09-12T03:36:41;52.03;;;26.87;;
71677;SDS011;59511;52.136;6.206;2023-09-12T03:39:06;49.13;;;27.03;;
71677;SDS011;59511;52.136;6.206;2023-09-12T03:41:33;53.28;;;28.08;;
71677;SDS011;59511;52.136;6.206;2023-09-12T03:43:59;52.78;;;28.45;;
71677;SDS011;59511;52.136;6.206;2023-09-12T03:46:25;52.50;;;28.73;;
71677;SDS011;59511;52.136;6.206;2023-09-12T03:48:50;52.77;;;27.93;;
71677;SDS011;59511;52.136;6.206;2023-09-12T03:51:15;53.00;;;28.17;;
71677;SDS011;59511;52.136;6.206;2023-09-12T03:53:41;49.27;;;26.33;;
71677;SDS011;59511;52.136;6.206;2023-09-12T03:56:06;50.90;;;27.17;;
71677;SDS011;59511;52.136;6.206;2023-09-12T03:58:33;51.47;;;27.03;;
71677;SDS011;59511;52.136;6.206;2023-09-12T04:00:58;50.83;;;26.65;;
71677;SDS011;59511;52.136;6.206;2023-09-12T04:03:24;50.50;;;27.80;;
71677;SDS011;59511;52.136;6.206;2023-09-12T04:05:50;47.93;;;27.37;;
71677;SDS011;59511;52.136;6.206;2023-09-12T04:08:16;49.30;;;26.90;;
71677;SDS011;59511;52.136;6.206;2023-09-12T04:10:42;50.17;;;26.83;;
71677;SDS011;59511;52.136;6.206;2023-09-12T04:13:07;51.80;;;26.80;;
71677;SDS011;59511;52.136;6.206;2023-09-12T04:15:33;51.20;;;26.50;;
71677;SDS011;59511;52.136;6.206;2023-09-12T04:17:58;48.47;;;27.13;;
71677;SDS011;59511;52.136;6.206;2023-09-12T04:20:24;49.20;;;27.38;;
71677;SDS011;59511;52.136;6.206;2023-09-12T04:22:49;54.17;;;28.13;;
71677;SDS011;59511;52.136;6.206;2023-09-12T04:25:15;48.50;;;26.80;;
71677;SDS011;59511;52.136;6.206;2023-09-12T04:27:41;49.33;;;27.03;;
71677;SDS011;59511;52.136;6.206;2023-09-12T04:30:07;50.38;;;27.23;;
71677;SDS011;59511;52.136;6.206;2023-09-12T04:32:33;48.47;;;26.03;;
71677;SDS011;59511;52.136;6.206;2023-09-12T04:34:58;48.40;;;26.50;;
71677;SDS011;59511;52.136;6.206;2023-09-12T04:37:23;50.30;;;27.00;;
71677;SDS011;59511;52.136;6.206;2023-09-12T04:39:49;45.43;;;25.77;;
71677;SDS011;59511;52.136;6.206;2023-09-12T04:42:14;47.27;;;26.87;;
71677;SDS011;59511;52.136;6.206;2023-09-12T04:44:40;47.13;;;26.57;;
71677;SDS011;59511;52.136;6.206;2023-09-12T04:47:06;47.58;;;26.50;;
71677;SDS011;59511;52.136;6.206;2023-09-12T04:49:33;46.22;;;27.10;;
71677;SDS011;59511;52.136;6.206;2023-09-12T04:51:58;47.25;;;26.17;;
71677;SDS011;59511;52.136;6.206;2023-09-12T04:54:24;46.03;;;25.97;;
71677;SDS011;59511;52.136;6.206;2023-09-12T04:56:49;45.13;;;25.67;;
71677;SDS011;59511;52.136;6.206;2023-09-12T04:59:14;44.23;;;25.03;;
71677;SDS011;59511;52.136;6.206;2023-09-12T05:01:40;41.90;;;23.57;;
71677;SDS011;59511;52.136;6.206;2023-09-12T05:04:05;45.07;;;25.10;;
71677;SDS011;59511;52.136;6.206;2023-09-12T05:06:30;44.60;;;25.63;;
71677;SDS011;59511;52.136;6.206;2023-09-12T05:08:56;45.40;;;25.67;;
71677;SDS011;59511;52.136;6.206;2023-09-12T05:11:22;44.10;;;25.53;;
71677;SDS011;59511;52.136;6.206;2023-09-12T05:13:49;43.22;;;25.27;;
71677;SDS011;59511;52.136;6.206;2023-09-12T05:16:14;41.93;;;24.93;;
71677;SDS011;59511;52.136;6.206;2023-09-12T05:18:42;43.50;;;25.50;;
71677;SDS011;59511;52.136;6.206;2023-09-12T05:21:08;41.93;;;24.43;;
71677;SDS011;59511;52.136;6.206;2023-09-12T05:23:34;41.90;;;24.20;;
71677;SDS011;59511;52.136;6.206;2023-09-12T05:25:59;41.00;;;24.43;;
71677;SDS011;59511;52.136;6.206;2023-09-12T05:28:24;43.73;;;24.80;;
71677;SDS011;59511;52.136;6.206;2023-09-12T05:30:50;45.27;;;25.03;;
71677;SDS011;59511;52.136;6.206;2023-09-12T05:33:15;45.03;;;26.77;;
71677;SDS011;59511;52.136;6.206;2023-09-12T05:35:41;43.10;;;24.70;;
71677;SDS011;59511;52.136;6.206;2023-09-12T05:38:06;44.07;;;25.17;;
71677;SDS011;59511;52.136;6.206;2023-09-12T05:40:31;42.13;;;24.83;;
71677;SDS011;59511;52.136;6.206;2023-09-12T05:42:57;44.23;;;24.83;;
71677;SDS011;59511;52.136;6.206;2023-09-12T05:45:22;43.83;;;25.20;;
71677;SDS011;59511;52.136;6.206;2023-09-12T05:47:48;43.50;;;25.25;;
71677;SDS011;59511;52.136;6.206;2023-09-12T05:50:15;44.28;;;25.52;;
71677;SDS011;59511;52.136;6.206;2023-09-12T05:52:40;43.53;;;24.80;;
71677;SDS011;59511;52.136;6.206;2023-09-12T05:55:07;43.38;;;25.35;;
71677;SDS011;59511;52.136;6.206;2023-09-12T05:57:33;45.03;;;24.85;;
71677;SDS011;59511;52.136;6.206;2023-09-12T05:59:58;42.40;;;25.37;;
71677;SDS011;59511;52.136;6.206;2023-09-12T06:02:35;42.70;;;24.90;;
71677;SDS011;59511;52.136;6.206;2023-09-12T06:05:00;42.23;;;23.73;;
71677;SDS011;59511;52.136;6.206;2023-09-12T06:07:26;42.05;;;24.23;;
71677;SDS011;59511;52.136;6.206;2023-09-12T06:09:51;39.87;;;23.83;;
71677;SDS011;59511;52.136;6.206;2023-09-12T06:12:17;42.43;;;25.30;;
71677;SDS011;59511;52.136;6.206;2023-09-12T06:14:43;40.75;;;23.77;;
71677;SDS011;59511;52.136;6.206;2023-09-12T06:17:08;41.47;;;24.50;;
71677;SDS011;59511;52.136;6.206;2023-09-12T06:19:34;41.47;;;23.57;;
71677;SDS011;59511;52.136;6.206;2023-09-12T06:21:59;42.28;;;23.58;;
71677;SDS011;59511;52.136;6.206;2023-09-12T06:24:25;40.73;;;24.20;;
71677;SDS011;59511;52.136;6.206;2023-09-12T06:26:50;42.30;;;24.73;;
71677;SDS011;59511;52.136;6.206;2023-09-12T06:29:16;40.92;;;23.85;;
71677;SDS011;59511;52.136;6.206;2023-09-12T06:31:41;40.03;;;22.67;;
71677;SDS011;59511;52.136;6.206;2023-09-12T06:34:07;40.07;;;23.53;;
71677;SDS011;59511;52.136;6.206;2023-09-12T06:36:33;40.13;;;23.10;;
71677;SDS011;59511;52.136;6.206;2023-09-12T06:38:59;41.15;;;24.42;;
71677;SDS011;59511;52.136;6.206;2023-09-12T06:41:25;40.60;;;23.02;;
71677;SDS011;59511;52.136;6.206;2023-09-12T06:43:51;39.93;;;23.57;;
71677;SDS011;59511;52.136;6.206;2023-09-12T06:46:17;40.10;;;23.63;;
71677;SDS011;59511;52.136;6.206;2023-09-12T06:48:45;44.60;;;24.83;;
71677;SDS011;59511;52.136;6.206;2023-09-12T06:51:11;39.88;;;22.95;;
71677;SDS011;59511;52.136;6.206;2023-09-12T06:53:37;38.92;;;22.75;;
71677;SDS011;59511;52.136;6.206;2023-09-12T06:56:03;40.70;;;23.65;;
71677;SDS011;59511;52.136;6.206;2023-09-12T06:58:29;41.27;;;23.47;;
71677;SDS011;59511;52.136;6.206;2023-09-12T07:00:55;37.65;;;22.15;;
71677;SDS011;59511;52.136;6.206;2023-09-12T07:03:20;41.57;;;23.97;;
71677;SDS011;59511;52.136;6.206;2023-09-12T07:05:46;39.00;;;22.90;;
71677;SDS011;59511;52.136;6.206;2023-09-12T07:08:11;37.93;;;22.30;;
71677;SDS011;59511;52.136;6.206;2023-09-12T07:10:37;40.53;;;23.63;;
71677;SDS011;59511;52.136;6.206;2023-09-12T07:13:09;37.08;;;22.40;;
71677;SDS011;59511;52.136;6.206;2023-09-12T07:15:35;38.93;;;23.53;;
71677;SDS011;59511;52.136;6.206;2023-09-12T07:18:01;39.50;;;23.55;;
71677;SDS011;59511;52.136;6.206;2023-09-12T07:20:27;39.80;;;23.77;;
71677;SDS011;59511;52.136;6.206;2023-09-12T07:22:52;40.00;;;23.63;;
71677;SDS011;59511;52.136;6.206;2023-09-12T07:25:18;39.43;;;22.70;;
71677;SDS011;59511;52.136;6.206;2023-09-12T07:27:44;39.33;;;22.58;;
71677;SDS011;59511;52.136;6.206;2023-09-12T07:30:09;39.83;;;23.20;;
71677;SDS011;59511;52.136;6.206;2023-09-12T07:32:35;40.03;;;24.05;;
71677;SDS011;59511;52.136;6.206;2023-09-12T07:35:00;41.17;;;23.33;;
71677;SDS011;59511;52.136;6.206;2023-09-12T07:37:26;38.10;;;22.17;;
71677;SDS011;59511;52.136;6.206;2023-09-12T07:39:52;39.87;;;23.60;;
71677;SDS011;59511;52.136;6.206;2023-09-12T07:42:20;38.60;;;22.23;;
71677;SDS011;59511;52.136;6.206;2023-09-12T07:44:46;42.28;;;23.98;;
71677;SDS011;59511;52.136;6.206;2023-09-12T07:47:12;38.03;;;21.10;;
71677;SDS011;59511;52.136;6.206;2023-09-12T07:49:37;40.93;;;23.80;;
71677;SDS011;59511;52.136;6.206;2023-09-12T07:52:03;41.40;;;24.10;;
71677;SDS011;59511;52.136;6.206;2023-09-12T07:54:29;41.38;;;22.83;;
71677;SDS011;59511;52.136;6.206;2023-09-12T07:56:55;38.92;;;22.90;;
71677;SDS011;59511;52.136;6.206;2023-09-12T07:59:21;40.70;;;22.63;;
71677;SDS011;59511;52.136;6.206;2023-09-12T08:01:47;41.13;;;24.05;;
71677;SDS011;59511;52.136;6.206;2023-09-12T08:04:12;44.87;;;24.23;;
71677;SDS011;59511;52.136;6.206;2023-09-12T08:06:39;40.35;;;23.52;;
71677;SDS011;59511;52.136;6.206;2023-09-12T08:09:06;40.67;;;23.03;;
71677;SDS011;59511;52.136;6.206;2023-09-12T08:11:31;41.95;;;23.08;;
71677;SDS011;59511;52.136;6.206;2023-09-12T08:13:57;42.73;;;23.63;;
71677;SDS011;59511;52.136;6.206;2023-09-12T08:16:22;42.57;;;23.53;;
71677;SDS011;59511;52.136;6.206;2023-09-12T08:18:48;38.28;;;22.30;;
71677;SDS011;59511;52.136;6.206;2023-09-12T08:21:13;41.57;;;23.17;;
71677;SDS011;59511;52.136;6.206;2023-09-12T08:23:38;41.33;;;22.50;;
71677;SDS011;59511;52.136;6.206;2023-09-12T08:26:04;42.33;;;23.80;;
71677;SDS011;59511;52.136;6.206;2023-09-12T08:28:29;41.83;;;23.33;;
71677;SDS011;59511;52.136;6.206;2023-09-12T08:30:54;43.57;;;23.80;;
71677;SDS011;59511;52.136;6.206;2023-09-12T08:33:20;42.78;;;23.80;;
71677;SDS011;59511;52.136;6.206;2023-09-12T08:35:45;44.50;;;23.37;;
71677;SDS011;59511;52.136;6.206;2023-09-12T08:38:10;41.47;;;22.97;;
71677;SDS011;59511;52.136;6.206;2023-09-12T08:40:36;45.97;;;24.70;;
71677;SDS011;59511;52.136;6.206;2023-09-12T08:43:03;46.00;;;23.83;;
71677;SDS011;59511;52.136;6.206;2023-09-12T08:45:29;45.60;;;24.63;;
71677;SDS011;59511;52.136;6.206;2023-09-12T08:47:55;44.53;;;24.60;;
71677;SDS011;59511;52.136;6.206;2023-09-12T08:50:23;45.88;;;24.33;;
71677;SDS011;59511;52.136;6.206;2023-09-12T08:52:50;46.70;;;24.20;;
71677;SDS011;59511;52.136;6.206;2023-09-12T08:55:15;45.88;;;23.77;;
71677;SDS011;59511;52.136;6.206;2023-09-12T08:57:41;44.00;;;23.65;;
71677;SDS011;59511;52.136;6.206;2023-09-12T09:00:08;45.97;;;23.70;;
71677;SDS011;59511;52.136;6.206;2023-09-12T09:02:35;46.50;;;24.77;;
71677;SDS011;59511;52.136;6.206;2023-09-12T09:05:04;45.83;;;24.17;;
71677;SDS011;59511;52.136;6.206;2023-09-12T09:07:38;46.42;;;24.08;;
71677;SDS011;59511;52.136;6.206;2023-09-12T09:10:05;45.50;;;24.45;;
71677;SDS011;59511;52.136;6.206;2023-09-12T09:12:33;45.17;;;24.17;;
71677;SDS011;59511;52.136;6.206;2023-09-12T09:15:19;46.00;;;25.10;;
71677;SDS011;59511;52.136;6.206;2023-09-12T09:17:53;45.50;;;23.52;;
71677;SDS011;59511;52.136;6.206;2023-09-12T09:23:04;49.80;;;24.67;;
71677;SDS011;59511;52.136;6.206;2023-09-12T09:25:31;48.60;;;25.63;;
71677;SDS011;59511;52.136;6.206;2023-09-12T09:27:57;45.60;;;24.92;;
71677;SDS011;59511;52.136;6.206;2023-09-12T09:30:39;49.30;;;25.95;;
71677;SDS011;59511;52.136;6.206;2023-09-12T09:33:05;48.77;;;24.27;;
71677;SDS011;59511;52.136;6.206;2023-09-12T09:35:31;47.65;;;24.50;;
71677;SDS011;59511;52.136;6.206;2023-09-12T09:37:56;49.17;;;24.27;;
71677;SDS011;59511;52.136;6.206;2023-09-12T09:40:22;49.73;;;24.57;;
71677;SDS011;59511;52.136;6.206;2023-09-12T09:42:52;48.13;;;24.52;;
71677;SDS011;59511;52.136;6.206;2023-09-12T09:45:18;47.25;;;24.80;;
71677;SDS011;59511;52.136;6.206;2023-09-12T09:47:44;53.07;;;26.13;;
71677;SDS011;59511;52.136;6.206;2023-09-12T09:50:13;49.13;;;25.47;;
71677;SDS011;59511;52.136;6.206;2023-09-12T09:52:39;48.08;;;24.33;;
71677;SDS011;59511;52.136;6.206;2023-09-12T09:55:06;47.90;;;24.33;;
71677;SDS011;59511;52.136;6.206;2023-09-12T09:57:36;50.03;;;24.67;;
71677;SDS011;59511;52.136;6.206;2023-09-12T10:00:03;46.78;;;24.13;;
71677;SDS011;59511;52.136;6.206;2023-09-12T10:02:33;48.50;;;24.60;;
71677;SDS011;59511;52.136;6.206;2023-09-12T10:05:00;45.13;;;24.27;;
71677;SDS011;59511;52.136;6.206;2023-09-12T10:07:33;47.50;;;25.05;;
71677;SDS011;59511;52.136;6.206;2023-09-12T10:10:03;47.03;;;25.13;;
71677;SDS011;59511;52.136;6.206;2023-09-12T10:12:33;46.35;;;24.92;;
71677;SDS011;59511;52.136;6.206;2023-09-12T10:15:01;47.55;;;23.65;;
71677;SDS011;59511;52.136;6.206;2023-09-12T10:17:36;45.65;;;25.08;;
71677;SDS011;59511;52.136;6.206;2023-09-12T10:20:03;45.80;;;24.30;;
71677;SDS011;59511;52.136;6.206;2023-09-12T10:22:36;44.87;;;23.57;;
71677;SDS011;59511;52.136;6.206;2023-09-12T10:25:05;45.13;;;24.75;;
71677;SDS011;59511;52.136;6.206;2023-09-12T10:27:32;46.67;;;24.35;;
71677;SDS011;59511;52.136;6.206;2023-09-12T10:29:58;45.75;;;24.60;;
71677;SDS011;59511;52.136;6.206;2023-09-12T10:32:25;44.92;;;23.85;;
71677;SDS011;59511;52.136;6.206;2023-09-12T10:34:52;44.50;;;23.27;;
71677;SDS011;59511;52.136;6.206;2023-09-12T10:37:19;47.45;;;24.40;;
71677;SDS011;59511;52.136;6.206;2023-09-12T10:39:45;44.10;;;24.27;;
71677;SDS011;59511;52.136;6.206;2023-09-12T10:42:12;45.15;;;24.10;;
71677;SDS011;59511;52.136;6.206;2023-09-12T10:44:38;45.65;;;23.80;;
71677;SDS011;59511;52.136;6.206;2023-09-12T10:47:04;45.80;;;24.27;;
71677;SDS011;59511;52.136;6.206;2023-09-12T10:49:29;45.45;;;23.50;;
71677;SDS011;59511;52.136;6.206;2023-09-12T10:51:56;43.83;;;23.77;;
71677;SDS011;59511;52.136;6.206;2023-09-12T10:54:26;48.53;;;24.47;;
71677;SDS011;59511;52.136;6.206;2023-09-12T10:59:30;42.90;;;23.63;;
71677;SDS011;59511;52.136;6.206;2023-09-12T11:05:01;40.25;;;22.02;;
71677;SDS011;59511;52.136;6.206;2023-09-12T11:07:31;42.20;;;23.27;;
71677;SDS011;59511;52.136;6.206;2023-09-12T11:12:43;41.47;;;22.85;;
71677;SDS011;59511;52.136;6.206;2023-09-12T11:15:10;41.30;;;23.08;;
71677;SDS011;59511;52.136;6.206;2023-09-12T11:17:37;42.58;;;22.42;;
71677;SDS011;59511;52.136;6.206;2023-09-12T11:20:03;42.83;;;23.07;;
71677;SDS011;59511;52.136;6.206;2023-09-12T11:22:35;42.83;;;22.85;;
71677;SDS011;59511;52.136;6.206;2023-09-12T11:25:02;42.72;;;23.05;;
71677;SDS011;59511;52.136;6.206;2023-09-12T11:27:32;41.40;;;22.98;;
71677;SDS011;59511;52.136;6.206;2023-09-12T11:30:09;41.53;;;23.27;;
71677;SDS011;59511;52.136;6.206;2023-09-12T11:32:35;42.03;;;22.10;;
71677;SDS011;59511;52.136;6.206;2023-09-12T11:35:07;43.58;;;23.38;;
71677;SDS011;59511;52.136;6.206;2023-09-12T11:37:33;42.38;;;22.30;;
71677;SDS011;59511;52.136;6.206;2023-09-12T11:40:02;40.40;;;22.30;;
71677;SDS011;59511;52.136;6.206;2023-09-12T11:42:47;41.08;;;21.85;;
71677;SDS011;59511;52.136;6.206;2023-09-12T11:45:15;36.83;;;22.03;;
71677;SDS011;59511;52.136;6.206;2023-09-12T11:47:43;40.60;;;22.63;;
71677;SDS011;59511;52.136;6.206;2023-09-12T11:50:25;39.78;;;22.10;;
71677;SDS011;59511;52.136;6.206;2023-09-12T11:53:11;38.15;;;21.30;;
71677;SDS011;59511;52.136;6.206;2023-09-12T11:55:46;40.22;;;21.33;;
71677;SDS011;59511;52.136;6.206;2023-09-12T11:58:13;39.00;;;21.50;;
71677;SDS011;59511;52.136;6.206;2023-09-12T12:00:44;37.63;;;21.92;;
71677;SDS011;59511;52.136;6.206;2023-09-12T12:03:11;39.85;;;22.30;;
71677;SDS011;59511;52.136;6.206;2023-09-12T12:05:37;38.37;;;21.97;;
71677;SDS011;59511;52.136;6.206;2023-09-12T12:08:02;40.80;;;22.08;;
71677;SDS011;59511;52.136;6.206;2023-09-12T12:10:28;38.63;;;21.88;;
71677;SDS011;59511;52.136;6.206;2023-09-12T12:12:55;37.70;;;20.93;;
71677;SDS011;59511;52.136;6.206;2023-09-12T12:15:20;39.90;;;21.83;;
71677;SDS011;59511;52.136;6.206;2023-09-12T12:17:45;36.80;;;21.00;;
71677;SDS011;59511;52.136;6.206;2023-09-12T12:20:11;36.07;;;21.17;;
71677;SDS011;59511;52.136;6.206;2023-09-12T12:22:37;38.00;;;21.67;;
71677;SDS011;59511;52.136;6.206;2023-09-12T12:25:07;37.97;;;20.98;;
71677;SDS011;59511;52.136;6.206;2023-09-12T12:27:37;37.55;;;21.05;;
71677;SDS011;59511;52.136;6.206;2023-09-12T12:30:05;37.72;;;20.42;;
71677;SDS011;59511;52.136;6.206;2023-09-12T12:32:32;37.80;;;20.90;;
71677;SDS011;59511;52.136;6.206;2023-09-12T12:34:57;36.27;;;21.57;;
71677;SDS011;59511;52.136;6.206;2023-09-12T12:37:27;36.83;;;20.43;;
71677;SDS011;59511;52.136;6.206;2023-09-12T12:39:55;36.78;;;21.13;;
71677;SDS011;59511;52.136;6.206;2023-09-12T12:42:20;35.63;;;19.87;;
71677;SDS011;59511;52.136;6.206;2023-09-12T12:44:52;37.55;;;20.45;;
71677;SDS011;59511;52.136;6.206;2023-09-12T12:47:18;35.83;;;20.48;;
71677;SDS011;59511;52.136;6.206;2023-09-12T12:49:43;37.13;;;20.67;;
71677;SDS011;59511;52.136;6.206;2023-09-12T12:52:11;35.33;;;20.33;;
71677;SDS011;59511;52.136;6.206;2023-09-12T12:54:37;34.33;;;20.83;;
71677;SDS011;59511;52.136;6.206;2023-09-12T12:57:02;34.63;;;19.43;;
71677;SDS011;59511;52.136;6.206;2023-09-12T12:59:28;36.80;;;20.02;;
71677;SDS011;59511;52.136;6.206;2023-09-12T13:01:55;35.45;;;20.35;;
71677;SDS011;59511;52.136;6.206;2023-09-12T13:04:20;35.50;;;20.40;;
71677;SDS011;59511;52.136;6.206;2023-09-12T13:06:46;34.40;;;20.03;;
71677;SDS011;59511;52.136;6.206;2023-09-12T13:09:11;33.13;;;19.77;;
71677;SDS011;59511;52.136;6.206;2023-09-12T13:11:37;34.03;;;19.92;;
71677;SDS011;59511;52.136;6.206;2023-09-12T13:14:03;33.88;;;19.00;;
71677;SDS011;59511;52.136;6.206;2023-09-12T13:16:36;33.87;;;19.83;;
71677;SDS011;59511;52.136;6.206;2023-09-12T13:19:01;32.05;;;18.85;;
71677;SDS011;59511;52.136;6.206;2023-09-12T13:21:28;32.25;;;19.80;;
71677;SDS011;59511;52.136;6.206;2023-09-12T13:23:53;33.20;;;20.07;;
71677;SDS011;59511;52.136;6.206;2023-09-12T13:26:18;34.00;;;19.90;;
71677;SDS011;59511;52.136;6.206;2023-09-12T13:28:44;31.80;;;18.63;;
71677;SDS011;59511;52.136;6.206;2023-09-12T13:31:09;32.20;;;19.00;;
71677;SDS011;59511;52.136;6.206;2023-09-12T13:33:34;31.90;;;18.43;;
71677;SDS011;59511;52.136;6.206;2023-09-12T13:36:00;34.77;;;18.93;;
71677;SDS011;59511;52.136;6.206;2023-09-12T13:38:25;34.72;;;19.50;;
71677;SDS011;59511;52.136;6.206;2023-09-12T13:40:51;32.97;;;19.03;;
71677;SDS011;59511;52.136;6.206;2023-09-12T13:43:16;33.00;;;19.13;;
71677;SDS011;59511;52.136;6.206;2023-09-12T13:45:42;30.80;;;17.90;;
71677;SDS011;59511;52.136;6.206;2023-09-12T13:48:07;33.77;;;19.40;;
71677;SDS011;59511;52.136;6.206;2023-09-12T13:50:33;33.03;;;19.42;;
71677;SDS011;59511;52.136;6.206;2023-09-12T13:52:59;31.20;;;18.43;;
71677;SDS011;59511;52.136;6.206;2023-09-12T13:55:31;31.50;;;17.97;;
71677;SDS011;59511;52.136;6.206;2023-09-12T13:58:01;30.63;;;17.52;;
71677;SDS011;59511;52.136;6.206;2023-09-12T14:00:30;28.58;;;18.00;;
71677;SDS011;59511;52.136;6.206;2023-09-12T14:02:56;30.98;;;18.30;;
71677;SDS011;59511;52.136;6.206;2023-09-12T14:05:22;33.38;;;19.52;;
71677;SDS011;59511;52.136;6.206;2023-09-12T14:07:48;30.80;;;18.67;;
71677;SDS011;59511;52.136;6.206;2023-09-12T14:10:13;29.90;;;18.43;;
71677;SDS011;59511;52.136;6.206;2023-09-12T14:12:39;30.93;;;18.00;;
71677;SDS011;59511;52.136;6.206;2023-09-12T14:15:04;30.30;;;18.47;;
71677;SDS011;59511;52.136;6.206;2023-09-12T14:17:31;29.90;;;18.02;;
71677;SDS011;59511;52.136;6.206;2023-09-12T14:19:57;30.08;;;18.20;;
71677;SDS011;59511;52.136;6.206;2023-09-12T14:22:23;28.33;;;18.13;;
71677;SDS011;59511;52.136;6.206;2023-09-12T14:24:48;29.77;;;18.30;;
71677;SDS011;59511;52.136;6.206;2023-09-12T14:27:13;28.55;;;17.48;;
71677;SDS011;59511;52.136;6.206;2023-09-12T14:29:39;26.47;;;17.40;;
71677;SDS011;59511;52.136;6.206;2023-09-12T14:32:04;26.90;;;16.20;;